Time;durP1;ratioP1;P1;durP2;ratioP2;P2;SDS_P1;SDS_P2;PMS_P1;PMS_P2;Temp;Humidity;BMP_temperature;BMP_pressure;BME280_temperature;BME280_humidity;BME280_pressure;Samples;Min_cycle;Max_cycle;Signal;HPM_P1;HPM_P2
2022/06/07 00:00:10;;;;;;;2.42;1.20;;;12.90;90.40;;;;;;5088787;27;20475;-87
2022/06/07 00:02:36;;;;;;;3.00;1.35;;;12.90;90.50;;;;;;5085166;28;20019;-87
2022/06/07 00:05:03;;;;;;;2.13;1.40;;;12.90;90.50;;;;;;5093580;28;20038;-87
2022/06/07 00:07:29;;;;;;;2.83;1.33;;;12.90;90.80;;;;;;5091241;28;20035;-87
2022/06/07 00:09:56;;;;;;;2.60;1.42;;;12.80;90.60;;;;;;5105905;28;20032;-87
2022/06/07 00:12:22;;;;;;;2.95;1.55;;;12.70;90.60;;;;;;5079236;28;20797;-86
2022/06/07 00:14:48;;;;;;;1.88;1.42;;;12.70;90.80;;;;;;5093427;28;20027;-87
2022/06/07 00:17:14;;;;;;;2.17;1.50;;;12.80;90.70;;;;;;5093767;27;20073;-87
2022/06/07 00:19:40;;;;;;;3.10;1.50;;;12.80;90.80;;;;;;5110374;28;20038;-87
2022/06/07 00:22:07;;;;;;;2.53;1.60;;;12.80;90.60;;;;;;5093653;28;20062;-87
2022/06/07 00:24:33;;;;;;;3.60;1.38;;;12.70;90.50;;;;;;5089224;28;20043;-87
2022/06/07 00:27:00;;;;;;;3.53;1.73;;;12.80;90.70;;;;;;5097084;28;20538;-87
2022/06/07 00:29:26;;;;;;;2.65;2.00;;;12.70;90.70;;;;;;5093556;28;20486;-87
2022/06/07 00:31:53;;;;;;;1.90;1.25;;;12.80;90.80;;;;;;5099098;28;20569;-87
2022/06/07 00:34:18;;;;;;;3.05;1.65;;;12.80;90.80;;;;;;5088704;27;20028;-87
2022/06/07 00:36:45;;;;;;;4.07;1.67;;;12.70;90.90;;;;;;5092928;28;20106;-87
2022/06/07 00:39:10;;;;;;;2.92;1.58;;;12.70;90.80;;;;;;5079712;28;20031;-87
2022/06/07 00:41:36;;;;;;;5.82;2.05;;;12.80;90.90;;;;;;5100577;28;20471;-87
2022/06/07 00:44:19;;;;;;;2.40;1.58;;;12.70;90.80;;;;;;5082599;28;20039;-87
2022/06/07 00:46:46;;;;;;;3.67;2.05;;;12.70;90.70;;;;;;5112685;28;20020;-87
2022/06/07 00:49:15;;;;;;;4.00;1.63;;;12.70;90.70;;;;;;5104726;28;20026;-88
2022/06/07 00:51:41;;;;;;;3.25;1.90;;;12.70;90.80;;;;;;5081501;28;20402;-87
2022/06/07 00:54:06;;;;;;;4.57;1.92;;;12.60;90.90;;;;;;5111466;28;20060;-87
2022/06/07 00:56:32;;;;;;;3.70;1.95;;;12.60;91.10;;;;;;5091327;28;20175;-87
2022/06/07 00:59:03;;;;;;;3.10;1.92;;;12.60;91.10;;;;;;5093801;28;20032;-87
2022/06/07 01:01:31;;;;;;;2.90;1.85;;;12.60;91.20;;;;;;5093715;28;20032;-87
2022/06/07 01:03:56;;;;;;;2.50;1.73;;;12.60;91.10;;;;;;5109457;28;20071;-87
2022/06/07 01:11:50;;;;;;;2.65;1.70;;;12.70;91.10;;;;;;5112022;28;20065;-87
2022/06/07 01:14:16;;;;;;;3.15;2.03;;;12.70;91.00;;;;;;5110800;28;20019;-87
2022/06/07 01:16:41;;;;;;;3.35;2.10;;;12.80;91.20;;;;;;5094480;28;20024;-87
2022/06/07 01:19:07;;;;;;;2.33;1.50;;;12.80;90.90;;;;;;5094671;28;20406;-87
2022/06/07 01:21:37;;;;;;;4.25;1.92;;;12.80;91.00;;;;;;5088150;28;20070;-87
2022/06/07 01:24:04;;;;;;;2.88;1.70;;;12.80;91.00;;;;;;5086959;28;20031;-87
2022/06/07 01:26:30;;;;;;;2.35;1.70;;;12.80;90.80;;;;;;5096539;28;20368;-87
2022/06/07 01:28:55;;;;;;;2.33;1.63;;;12.80;90.60;;;;;;5098196;28;20111;-87
2022/06/07 01:31:21;;;;;;;4.22;1.73;;;12.90;90.60;;;;;;5113515;28;20022;-87
2022/06/07 01:33:47;;;;;;;2.03;1.45;;;12.90;90.50;;;;;;5100864;28;20097;-87
2022/06/07 01:36:15;;;;;;;2.38;1.30;;;13.00;90.40;;;;;;5100012;28;20035;-87
2022/06/07 01:38:43;;;;;;;1.80;1.35;;;12.90;90.20;;;;;;5097464;28;20024;-87
2022/06/07 01:43:53;;;;;;;2.28;1.58;;;12.90;90.50;;;;;;5116863;27;20030;-87
2022/06/07 01:46:19;;;;;;;2.28;1.40;;;12.80;90.50;;;;;;5097526;28;20466;-87
2022/06/07 01:48:48;;;;;;;1.60;1.40;;;12.90;90.50;;;;;;5096012;28;20034;-87
2022/06/07 01:51:14;;;;;;;3.30;1.73;;;12.90;90.50;;;;;;5100609;28;20023;-87
2022/06/07 01:53:40;;;;;;;1.73;1.50;;;12.90;90.40;;;;;;5096644;28;20471;-87
2022/06/07 01:56:11;;;;;;;3.92;1.50;;;12.90;90.40;;;;;;5094834;28;20031;-87
2022/06/07 01:58:39;;;;;;;1.95;1.63;;;12.90;90.20;;;;;;5101623;28;20024;-87
2022/06/07 02:01:05;;;;;;;1.83;1.30;;;12.90;90.20;;;;;;5115475;27;20047;-87
2022/06/07 02:03:31;;;;;;;2.72;1.45;;;13.00;90.30;;;;;;5089601;28;20028;-87
2022/06/07 02:06:00;;;;;;;1.83;1.30;;;12.90;90.30;;;;;;5096040;28;20035;-87
2022/06/07 02:08:27;;;;;;;1.45;1.33;;;12.90;90.30;;;;;;5097083;28;20019;-87
2022/06/07 02:10:53;;;;;;;3.92;1.30;;;12.90;90.20;;;;;;5107294;28;20032;-87
2022/06/07 02:13:20;;;;;;;2.13;1.13;;;12.80;90.20;;;;;;5091263;28;20028;-87
2022/06/07 02:15:46;;;;;;;1.60;1.17;;;12.80;90.20;;;;;;5056162;28;20032;-87
2022/06/07 02:18:13;;;;;;;1.20;1.00;;;12.80;90.20;;;;;;5073492;28;20031;-87
2022/06/07 02:20:38;;;;;;;1.48;1.00;;;12.80;90.30;;;;;;5065742;28;20608;-87
2022/06/07 02:23:05;;;;;;;1.42;1.08;;;12.70;90.20;;;;;;5087804;28;20021;-87
2022/06/07 02:25:35;;;;;;;1.42;1.02;;;12.80;90.30;;;;;;5066908;28;20059;-87
2022/06/07 02:28:01;;;;;;;1.40;1.00;;;12.70;90.10;;;;;;5075463;28;20671;-87
2022/06/07 02:30:27;;;;;;;2.95;1.17;;;12.70;90.00;;;;;;5076023;28;20270;-87
2022/06/07 02:32:52;;;;;;;1.45;1.10;;;12.70;89.90;;;;;;5073857;28;20054;-88
2022/06/07 02:35:18;;;;;;;1.35;1.00;;;12.60;89.90;;;;;;5082481;28;20492;-87
2022/06/07 02:37:44;;;;;;;0.85;0.85;;;12.60;89.90;;;;;;5071507;28;20118;-87
2022/06/07 02:40:10;;;;;;;1.88;1.00;;;12.60;89.90;;;;;;5063293;28;20508;-87
2022/06/07 02:42:36;;;;;;;1.00;0.90;;;12.60;89.50;;;;;;5094457;28;20095;-87
2022/06/07 02:45:03;;;;;;;1.10;0.90;;;12.60;89.40;;;;;;5093712;28;20101;-87
2022/06/07 02:47:30;;;;;;;2.53;0.90;;;12.60;89.40;;;;;;5063737;28;20020;-87
2022/06/07 02:49:56;;;;;;;2.45;1.10;;;12.60;89.20;;;;;;5090555;28;20055;-87
2022/06/07 02:52:22;;;;;;;1.23;0.93;;;12.60;89.10;;;;;;5075909;28;20536;-87
2022/06/07 02:54:48;;;;;;;2.50;0.90;;;12.60;89.00;;;;;;5074201;28;20127;-87
2022/06/07 02:57:15;;;;;;;1.10;1.00;;;12.60;88.80;;;;;;5073920;28;20028;-87
2022/06/07 02:59:40;;;;;;;1.67;0.85;;;12.60;88.90;;;;;;5076411;28;20095;-87
2022/06/07 03:02:06;;;;;;;2.42;1.05;;;12.60;88.90;;;;;;5066526;28;20119;-87
2022/06/07 03:04:31;;;;;;;1.33;0.80;;;12.60;88.90;;;;;;5063769;28;20452;-87
2022/06/07 03:06:57;;;;;;;2.58;0.90;;;12.70;88.90;;;;;;5093660;28;20028;-87
2022/06/07 03:09:23;;;;;;;1.08;0.98;;;12.60;88.90;;;;;;5056820;28;20538;-87
2022/06/07 03:11:48;;;;;;;2.35;0.80;;;12.60;88.90;;;;;;5065490;28;20037;-87
2022/06/07 03:14:14;;;;;;;1.25;0.95;;;12.60;88.90;;;;;;5075883;28;20072;-87
2022/06/07 03:16:39;;;;;;;2.88;1.02;;;12.60;88.80;;;;;;5087432;28;20287;-87
2022/06/07 03:19:05;;;;;;;2.83;0.98;;;12.70;88.90;;;;;;5071315;28;20032;-87
2022/06/07 03:21:31;;;;;;;2.80;0.90;;;12.60;88.70;;;;;;5072993;28;20028;-87
2022/06/07 03:23:56;;;;;;;1.30;1.00;;;12.60;88.60;;;;;;5069804;28;20020;-87
2022/06/07 03:26:22;;;;;;;1.83;1.00;;;12.60;88.70;;;;;;5071221;28;20105;-87
2022/06/07 03:28:48;;;;;;;3.78;1.25;;;12.60;88.80;;;;;;5075413;28;20053;-88
2022/06/07 03:31:16;;;;;;;1.33;1.08;;;12.60;88.50;;;;;;5074901;28;20111;-87
2022/06/07 03:33:43;;;;;;;1.00;0.90;;;12.60;88.40;;;;;;5091973;28;20071;-87
2022/06/07 03:36:11;;;;;;;1.95;1.20;;;12.60;88.60;;;;;;5086061;28;20028;-87
2022/06/07 03:38:37;;;;;;;1.58;1.10;;;12.70;88.50;;;;;;5074277;28;20035;-87
2022/06/07 03:41:03;;;;;;;3.38;1.15;;;12.70;88.40;;;;;;5071736;28;20043;-87
2022/06/07 03:43:28;;;;;;;2.70;1.20;;;12.80;88.30;;;;;;5081165;28;20032;-87
2022/06/07 03:45:54;;;;;;;1.38;1.00;;;12.80;88.20;;;;;;5074515;28;20486;-87
2022/06/07 03:48:20;;;;;;;3.17;1.30;;;12.90;88.00;;;;;;5080180;28;20024;-87
2022/06/07 03:50:45;;;;;;;1.10;1.00;;;12.90;88.10;;;;;;5073871;28;20043;-87
2022/06/07 03:53:11;;;;;;;2.28;1.20;;;13.00;88.00;;;;;;5074642;28;20111;-87
2022/06/07 03:55:47;;;;;;;1.92;1.38;;;13.00;87.80;;;;;;5089029;28;20024;-87
2022/06/07 03:58:13;;;;;;;1.30;1.10;;;13.00;87.80;;;;;;5062182;28;20049;-87
2022/06/07 04:00:38;;;;;;;1.98;1.30;;;13.00;87.90;;;;;;5075082;28;20027;-87
2022/06/07 04:03:04;;;;;;;3.13;1.45;;;13.00;87.60;;;;;;5069281;28;20024;-87
2022/06/07 04:05:29;;;;;;;4.05;1.70;;;13.00;87.60;;;;;;5071988;28;20036;-87
2022/06/07 04:08:13;;;;;;;2.17;1.40;;;13.00;87.70;;;;;;5074794;28;20110;-87
2022/06/07 04:10:44;;;;;;;2.40;1.35;;;13.10;87.80;;;;;;5067799;28;20090;-87
2022/06/07 04:13:09;;;;;;;5.40;1.77;;;13.10;87.40;;;;;;5072323;28;20468;-86
2022/06/07 04:15:35;;;;;;;9.13;2.97;;;13.10;87.40;;;;;;5058544;28;20054;-86
2022/06/07 04:18:01;;;;;;;2.22;1.60;;;13.10;87.40;;;;;;5075780;28;20029;-86
2022/06/07 04:20:26;;;;;;;4.72;1.60;;;13.10;87.40;;;;;;5065683;28;20043;-86
2022/06/07 04:22:52;;;;;;;4.40;1.90;;;13.10;87.20;;;;;;5093421;28;20477;-86
2022/06/07 04:25:17;;;;;;;3.13;1.90;;;13.20;87.50;;;;;;5071452;28;20052;-86
2022/06/07 04:27:43;;;;;;;3.15;1.95;;;13.20;87.30;;;;;;5091834;28;20412;-86
2022/06/07 04:30:10;;;;;;;3.13;2.03;;;13.10;86.90;;;;;;5073392;28;20031;-86
2022/06/07 04:32:35;;;;;;;5.25;2.00;;;13.20;86.90;;;;;;5071256;28;20081;-85
2022/06/07 04:35:01;;;;;;;3.95;2.47;;;13.20;87.60;;;;;;5060481;28;20025;-86
2022/06/07 04:37:26;;;;;;;5.18;2.13;;;13.20;88.00;;;;;;5071743;28;20110;-85
2022/06/07 04:39:52;;;;;;;3.90;2.35;;;13.10;88.20;;;;;;5062526;28;20496;-84
2022/06/07 04:42:17;;;;;;;3.63;2.33;;;13.10;88.80;;;;;;5071263;28;20035;-84
2022/06/07 04:44:43;;;;;;;4.35;2.55;;;13.00;89.70;;;;;;5092428;28;20027;-84
2022/06/07 04:47:08;;;;;;;5.05;2.85;;;12.90;90.10;;;;;;5069869;28;20020;-84
2022/06/07 04:49:35;;;;;;;5.82;2.92;;;12.90;90.80;;;;;;5090660;28;20536;-85
2022/06/07 04:52:00;;;;;;;5.10;3.45;;;12.80;90.70;;;;;;5090838;28;20448;-85
2022/06/07 04:54:26;;;;;;;4.50;3.25;;;12.80;91.40;;;;;;5056412;28;20543;-85
2022/06/07 04:56:54;;;;;;;5.38;3.08;;;12.80;91.60;;;;;;5054256;28;20031;-84
2022/06/07 04:59:19;;;;;;;4.80;3.45;;;12.80;91.80;;;;;;5091290;28;20024;-85
2022/06/07 05:01:45;;;;;;;4.63;3.28;;;12.80;91.90;;;;;;5064854;28;20503;-84
2022/06/07 05:04:11;;;;;;;5.38;3.47;;;12.80;92.00;;;;;;5066076;28;20024;-85
2022/06/07 05:06:40;;;;;;;5.53;3.67;;;12.80;92.10;;;;;;5072820;28;20894;-85
2022/06/07 05:09:11;;;;;;;6.28;4.18;;;12.80;92.30;;;;;;5072107;28;20024;-85
2022/06/07 05:11:37;;;;;;;6.35;4.07;;;12.80;92.40;;;;;;5078964;28;20364;-85
2022/06/07 05:14:04;;;;;;;5.95;4.00;;;12.80;92.40;;;;;;5090717;28;20031;-85
2022/06/07 05:16:30;;;;;;;12.57;5.28;;;12.80;92.50;;;;;;5088714;28;20024;-84
2022/06/07 05:18:56;;;;;;;6.68;4.53;;;12.80;92.70;;;;;;5089379;28;20531;-84
2022/06/07 05:21:24;;;;;;;7.57;5.30;;;12.80;92.70;;;;;;5088889;28;20076;-84
2022/06/07 05:23:51;;;;;;;9.93;6.88;;;12.80;93.10;;;;;;5090169;28;20029;-84
2022/06/07 05:26:26;;;;;;;9.85;5.65;;;12.80;93.10;;;;;;5088489;28;20032;-85
2022/06/07 05:28:52;;;;;;;11.30;6.82;;;12.80;93.30;;;;;;5089484;28;20588;-84
2022/06/07 05:31:17;;;;;;;10.05;7.15;;;12.80;92.90;;;;;;5089763;28;20118;-84
2022/06/07 05:33:43;;;;;;;12.85;7.57;;;12.90;93.20;;;;;;5088178;28;20036;-84
2022/06/07 05:36:09;;;;;;;13.25;7.90;;;12.90;93.20;;;;;;5088719;28;20016;-85
2022/06/07 05:38:34;;;;;;;12.63;8.02;;;13.00;93.20;;;;;;5083399;28;20028;-85
2022/06/07 05:41:00;;;;;;;12.50;8.75;;;13.00;93.30;;;;;;5079619;28;20082;-85
2022/06/07 05:43:26;;;;;;;12.32;9.00;;;13.10;93.20;;;;;;5088829;28;20451;-85
2022/06/07 05:45:53;;;;;;;13.00;8.40;;;13.10;93.20;;;;;;5080254;28;20032;-85
2022/06/07 05:48:19;;;;;;;15.10;9.13;;;13.10;93.10;;;;;;5090107;28;20032;-84
2022/06/07 05:50:50;;;;;;;14.80;9.98;;;13.10;93.20;;;;;;5079308;28;20036;-85
2022/06/07 05:53:18;;;;;;;13.45;9.77;;;13.20;92.80;;;;;;5070690;28;20024;-84
2022/06/07 05:55:44;;;;;;;16.33;10.38;;;13.20;92.70;;;;;;5067462;28;20394;-84
2022/06/07 05:58:10;;;;;;;16.92;9.82;;;13.30;92.70;;;;;;5079268;28;20078;-84
2022/06/07 06:00:37;;;;;;;18.23;11.02;;;13.20;92.60;;;;;;5090625;28;20484;-84
2022/06/07 06:03:03;;;;;;;16.10;10.60;;;13.20;93.00;;;;;;5085265;28;20036;-84
2022/06/07 06:05:28;;;;;;;15.50;11.25;;;13.20;92.70;;;;;;5092658;28;20030;-83
2022/06/07 06:10:39;;;;;;;17.75;11.57;;;13.30;92.90;;;;;;5084645;28;20140;-83
2022/06/07 06:13:05;;;;;;;17.02;10.60;;;13.20;92.80;;;;;;5056216;28;20044;-83
2022/06/07 06:15:31;;;;;;;16.17;11.15;;;13.30;92.90;;;;;;5086464;28;20063;-83
2022/06/07 06:17:57;;;;;;;19.08;11.13;;;13.30;92.70;;;;;;5092247;28;20024;-83
2022/06/07 06:20:23;;;;;;;18.52;10.93;;;13.30;92.80;;;;;;5075393;28;20395;-83
2022/06/07 06:22:49;;;;;;;18.08;11.18;;;13.40;93.10;;;;;;5073500;28;20020;-83
2022/06/07 06:25:15;;;;;;;14.30;9.90;;;13.30;93.00;;;;;;5090959;28;20036;-83
2022/06/07 06:27:41;;;;;;;15.38;10.20;;;13.40;92.70;;;;;;5093564;28;20024;-84
2022/06/07 06:30:08;;;;;;;14.70;10.30;;;13.40;92.50;;;;;;5074713;28;20017;-84
2022/06/07 06:32:34;;;;;;;12.77;9.07;;;13.50;92.60;;;;;;5072696;28;20053;-84
2022/06/07 06:34:59;;;;;;;15.05;9.32;;;13.50;92.40;;;;;;5071168;28;20033;-84
2022/06/07 06:37:27;;;;;;;17.80;8.68;;;13.50;92.30;;;;;;5087974;28;20527;-84
2022/06/07 06:39:53;;;;;;;13.50;8.52;;;13.60;91.40;;;;;;5075395;28;20119;-84
2022/06/07 06:42:18;;;;;;;14.18;8.48;;;13.80;90.90;;;;;;5091686;28;20103;-84
2022/06/07 06:44:44;;;;;;;11.38;7.95;;;14.00;90.70;;;;;;5074384;28;20039;-84
2022/06/07 06:47:11;;;;;;;11.80;7.20;;;14.00;90.30;;;;;;5069588;28;20103;-85
2022/06/07 06:49:38;;;;;;;12.80;7.15;;;14.20;90.00;;;;;;5076163;28;20229;-84
2022/06/07 06:52:04;;;;;;;10.60;6.43;;;14.30;89.40;;;;;;5093467;28;20363;-85
2022/06/07 06:54:30;;;;;;;10.23;6.88;;;14.40;89.70;;;;;;5074245;28;20771;-84
2022/06/07 06:56:56;;;;;;;8.63;6.18;;;14.30;88.90;;;;;;5092165;28;20073;-85
2022/06/07 06:59:22;;;;;;;10.85;6.20;;;14.40;89.20;;;;;;5075447;28;20032;-85
2022/06/07 07:01:47;;;;;;;11.32;5.88;;;14.40;88.10;;;;;;5066869;28;20047;-84
2022/06/07 07:04:17;;;;;;;10.43;5.47;;;14.50;88.30;;;;;;5070724;28;20049;-84
2022/06/07 07:06:43;;;;;;;6.32;4.43;;;14.50;88.30;;;;;;5079362;28;20016;-84
2022/06/07 07:09:09;;;;;;;9.55;5.22;;;14.50;88.30;;;;;;5074392;28;20352;-84
2022/06/07 07:11:44;;;;;;;12.43;5.72;;;14.50;88.00;;;;;;5080152;28;20560;-85
2022/06/07 07:14:11;;;;;;;11.13;5.40;;;14.50;87.90;;;;;;5102945;28;20099;-85
2022/06/07 07:16:44;;;;;;;8.43;5.00;;;14.50;87.80;;;;;;5085365;28;20020;-85
2022/06/07 07:19:11;;;;;;;9.68;5.03;;;14.50;88.10;;;;;;5090987;28;20024;-85
2022/06/07 07:21:40;;;;;;;8.90;4.55;;;14.50;87.30;;;;;;5092092;28;20031;-84
2022/06/07 07:24:12;;;;;;;8.35;4.65;;;14.50;87.70;;;;;;5091256;28;20031;-84
2022/06/07 07:26:38;;;;;;;6.82;4.60;;;14.50;87.80;;;;;;5089075;28;20499;-84
2022/06/07 07:29:04;;;;;;;5.78;3.42;;;14.50;87.70;;;;;;5081118;28;20490;-84
2022/06/07 07:31:33;;;;;;;8.45;4.07;;;14.50;87.00;;;;;;5092871;28;20144;-84
2022/06/07 07:34:02;;;;;;;7.22;3.88;;;14.50;87.30;;;;;;5087565;28;20434;-85
2022/06/07 07:36:28;;;;;;;5.75;3.80;;;14.50;87.10;;;;;;5092196;28;20490;-85
2022/06/07 07:38:54;;;;;;;8.48;3.83;;;14.60;87.80;;;;;;5092263;28;20020;-84
2022/06/07 07:41:23;;;;;;;6.90;3.63;;;14.60;87.40;;;;;;5091057;28;20062;-85
2022/06/07 07:43:51;;;;;;;5.88;3.45;;;14.50;87.10;;;;;;5073735;28;20020;-85
2022/06/07 07:46:18;;;;;;;7.22;3.33;;;14.50;87.00;;;;;;5080405;28;20067;-85
2022/06/07 07:48:44;;;;;;;7.50;3.53;;;14.60;87.30;;;;;;5090932;28;20024;-85
2022/06/07 07:51:18;;;;;;;10.68;3.53;;;14.60;86.90;;;;;;5083945;28;20039;-85
2022/06/07 07:53:44;;;;;;;7.72;3.70;;;14.80;87.30;;;;;;5090565;28;20039;-85
2022/06/07 07:56:10;;;;;;;7.70;3.35;;;14.90;86.80;;;;;;5089339;28;20024;-84
2022/06/07 07:58:36;;;;;;;5.55;3.03;;;15.00;86.10;;;;;;5091800;28;20020;-85
2022/06/07 08:01:08;;;;;;;8.82;3.50;;;15.10;85.60;;;;;;5088197;28;20032;-85
2022/06/07 08:03:34;;;;;;;7.38;3.30;;;15.10;85.10;;;;;;5085714;28;20530;-85
2022/06/07 08:06:00;;;;;;;7.65;3.15;;;15.30;85.20;;;;;;5090123;28;20024;-85
2022/06/07 08:08:25;;;;;;;5.53;3.35;;;15.50;85.20;;;;;;5091706;28;20379;-85
2022/06/07 08:10:51;;;;;;;5.47;2.95;;;15.50;84.60;;;;;;5088648;28;20099;-85
2022/06/07 08:13:17;;;;;;;6.30;3.33;;;15.60;84.70;;;;;;5092064;28;20024;-85
2022/06/07 08:15:44;;;;;;;9.30;3.28;;;15.60;84.10;;;;;;5092452;28;20489;-85
2022/06/07 08:18:10;;;;;;;7.18;2.97;;;15.50;83.60;;;;;;5085283;28;20576;-86
2022/06/07 08:20:37;;;;;;;5.78;3.17;;;15.60;83.90;;;;;;5080643;28;20020;-86
2022/06/07 08:23:05;;;;;;;9.27;3.30;;;15.60;83.50;;;;;;5091595;28;20502;-86
2022/06/07 08:25:31;;;;;;;8.32;2.78;;;15.70;83.70;;;;;;5067588;28;20055;-86
2022/06/07 08:27:57;;;;;;;6.55;2.95;;;15.90;83.20;;;;;;5087707;28;20024;-86
2022/06/07 08:30:23;;;;;;;6.43;2.90;;;15.90;82.80;;;;;;5095068;28;20493;-86
2022/06/07 08:32:48;;;;;;;10.48;2.90;;;16.00;82.00;;;;;;5099799;28;20027;-86
2022/06/07 08:38:02;;;;;;;5.95;3.22;;;16.30;81.80;;;;;;5095160;28;20449;-86
2022/06/07 08:40:33;;;;;;;5.93;3.08;;;16.00;81.20;;;;;;5092485;28;20024;-86
2022/06/07 08:43:05;;;;;;;6.22;3.30;;;16.00;82.00;;;;;;5090950;28;20187;-86
2022/06/07 08:45:39;;;;;;;8.43;3.30;;;15.80;81.60;;;;;;5090174;28;20032;-85
2022/06/07 08:48:18;;;;;;;6.07;3.13;;;15.90;81.50;;;;;;5091930;28;20024;-85
2022/06/07 08:51:10;;;;;;;5.85;3.17;;;16.00;81.80;;;;;;5083696;28;20029;-85
2022/06/07 08:53:39;;;;;;;4.53;2.63;;;16.70;80.30;;;;;;5086663;28;20024;-85
2022/06/07 08:56:11;;;;;;;4.47;3.10;;;17.50;78.20;;;;;;5088745;28;20024;-86
2022/06/07 08:58:43;;;;;;;9.23;3.60;;;17.10;76.70;;;;;;5090586;28;20154;-86
2022/06/07 09:01:42;;;;;;;7.90;3.00;;;17.00;76.90;;;;;;5090165;28;20056;-86
2022/06/07 09:04:31;;;;;;;6.35;3.05;;;16.70;76.90;;;;;;5089201;28;20043;-86
2022/06/07 09:07:04;;;;;;;7.00;2.80;;;16.70;77.90;;;;;;5082438;28;20717;-86
2022/06/07 09:12:26;;;;;;;6.13;3.28;;;16.50;79.10;;;;;;5106190;28;20099;-85
2022/06/07 09:15:11;;;;;;;7.00;3.25;;;16.50;79.40;;;;;;5092175;28;20024;-85
2022/06/07 09:17:52;;;;;;;7.07;3.35;;;16.40;78.90;;;;;;5077530;28;20407;-85
2022/06/07 09:20:30;;;;;;;5.88;3.90;;;16.50;79.00;;;;;;5110829;28;20470;-86
2022/06/07 09:22:59;;;;;;;6.38;3.92;;;16.30;79.00;;;;;;5093921;28;20474;-86
2022/06/07 09:25:37;;;;;;;6.30;3.50;;;16.00;79.40;;;;;;5091253;28;20074;-86
2022/06/07 09:28:05;;;;;;;4.78;3.10;;;15.90;79.50;;;;;;5094028;28;20039;-86
2022/06/07 09:30:38;;;;;;;5.30;3.38;;;15.80;79.90;;;;;;5113461;28;20057;-86
2022/06/07 09:33:26;;;;;;;6.43;4.20;;;15.90;81.10;;;;;;5088149;28;20024;-86
2022/06/07 09:35:54;;;;;;;10.20;4.20;;;16.10;79.00;;;;;;5090648;28;20024;-86
2022/06/07 09:38:36;;;;;;;6.28;3.92;;;16.70;78.30;;;;;;5080497;27;20501;-86
2022/06/07 09:41:58;;;;;;;5.22;3.35;;;16.90;77.70;;;;;;5094640;28;20084;-86
2022/06/07 09:44:11;;;;;;;7.22;3.67;;;17.30;76.50;;;;;;5099193;28;20398;-86
2022/06/07 09:46:37;;;;;;;8.48;3.80;;;17.20;76.40;;;;;;5090603;28;20092;-86
2022/06/07 09:49:04;;;;;;;8.18;4.38;;;17.60;75.40;;;;;;5093751;28;20012;-86
2022/06/07 09:51:39;;;;;;;6.57;4.05;;;17.90;73.50;;;;;;5096182;28;20262;-86
2022/06/07 09:54:17;;;;;;;8.35;4.65;;;17.80;73.50;;;;;;5095992;28;20032;-87
2022/06/07 09:57:04;;;;;;;9.32;5.20;;;18.10;73.30;;;;;;5096034;28;20024;-86
2022/06/07 09:59:33;;;;;;;8.35;5.25;;;18.00;73.60;;;;;;5096607;28;20537;-87
2022/06/07 10:02:24;;;;;;;7.47;5.35;;;17.90;73.30;;;;;;5085320;28;20077;-86
2022/06/07 10:05:07;;;;;;;8.07;5.55;;;18.20;73.20;;;;;;5069691;28;20039;-87
2022/06/07 10:07:52;;;;;;;9.55;5.13;;;18.10;71.50;;;;;;5096624;28;20473;-86
2022/06/07 10:10:56;;;;;;;8.10;5.25;;;17.90;71.70;;;;;;5080273;28;20032;-87
2022/06/07 10:13:58;;;;;;;7.22;4.82;;;18.10;70.30;;;;;;5058034;28;20059;-86
2022/06/07 10:16:56;;;;;;;7.97;5.03;;;19.30;68.70;;;;;;5088225;28;20479;-87
2022/06/07 10:19:39;;;;;;;8.93;4.75;;;19.50;69.10;;;;;;5076448;28;20040;-86
2022/06/07 10:22:14;;;;;;;6.57;4.43;;;19.10;67.20;;;;;;5076178;28;20431;-86
2022/06/07 10:25:01;;;;;;;7.90;4.90;;;19.20;68.00;;;;;;5071568;28;20020;-86
2022/06/07 10:27:41;;;;;;;7.93;5.05;;;19.00;67.60;;;;;;5067516;28;20051;-87
2022/06/07 10:30:28;;;;;;;8.75;4.35;;;18.40;69.20;;;;;;5066379;28;20096;-87
2022/06/07 10:33:10;;;;;;;5.65;3.85;;;18.40;70.80;;;;;;5071373;28;20071;-87
2022/06/07 10:35:48;;;;;;;9.98;4.18;;;18.70;68.10;;;;;;5086007;28;20024;-86
2022/06/07 10:38:20;;;;;;;6.68;4.50;;;19.30;65.90;;;;;;5069837;28;20031;-86
2022/06/07 10:41:13;;;;;;;7.47;4.00;;;19.20;65.10;;;;;;5071341;28;20516;-87
2022/06/07 10:44:11;;;;;;;6.15;3.80;;;19.10;65.30;;;;;;5093584;28;20036;-86
2022/06/07 10:46:40;;;;;;;7.90;4.60;;;18.60;65.30;;;;;;5073024;28;20028;-86
2022/06/07 10:49:22;;;;;;;8.15;4.22;;;18.10;67.10;;;;;;5068178;28;20425;-86
2022/06/07 10:54:52;;;;;;;7.38;4.82;;;17.70;70.30;;;;;;5093140;28;20034;-86
2022/06/07 10:57:40;;;;;;;8.70;5.10;;;17.50;69.60;;;;;;5074332;28;20028;-86
2022/06/07 11:00:47;;;;;;;6.63;5.35;;;17.30;71.60;;;;;;5075695;28;20494;-86
2022/06/07 11:03:36;;;;;;;9.77;5.07;;;17.10;70.90;;;;;;5081963;28;20508;-87
2022/06/07 11:09:29;;;;;;;7.35;5.65;;;17.50;69.90;;;;;;5075949;28;20498;-87
2022/06/07 11:12:00;;;;;;;9.77;5.85;;;17.50;68.90;;;;;;5068388;28;20047;-86
2022/06/07 11:14:46;;;;;;;8.68;5.63;;;17.30;70.00;;;;;;5086903;28;20043;-87
2022/06/07 11:17:27;;;;;;;11.93;6.03;;;17.30;69.80;;;;;;5066162;28;20464;-86
2022/06/07 11:19:53;;;;;;;8.15;5.82;;;17.30;70.10;;;;;;5074957;28;20027;-86
2022/06/07 11:22:22;;;;;;;9.82;5.78;;;17.10;70.40;;;;;;5075002;28;20027;-86
2022/06/07 11:25:00;;;;;;;9.60;5.72;;;17.00;70.50;;;;;;5072724;28;20062;-86
2022/06/07 11:27:28;;;;;;;8.50;5.28;;;16.80;71.20;;;;;;5071623;28;20031;-86
2022/06/07 11:30:21;;;;;;;9.98;5.55;;;16.90;72.00;;;;;;5075592;28;20489;-87
2022/06/07 11:32:58;;;;;;;8.40;6.22;;;16.90;71.60;;;;;;5097469;28;20077;-86
2022/06/07 11:35:45;;;;;;;9.27;5.47;;;16.70;72.30;;;;;;5081052;28;20032;-86
2022/06/07 11:38:22;;;;;;;9.32;5.68;;;16.70;73.30;;;;;;5073969;28;20028;-87
2022/06/07 11:40:51;;;;;;;9.65;6.40;;;16.80;73.50;;;;;;5068813;28;20032;-86
2022/06/07 11:43:48;;;;;;;9.55;5.93;;;16.80;72.90;;;;;;5062602;28;20425;-86
2022/06/07 11:46:25;;;;;;;8.93;6.22;;;16.80;73.40;;;;;;5072337;28;20056;-86
2022/06/07 11:48:50;;;;;;;10.25;6.70;;;16.80;73.40;;;;;;5061188;28;20387;-87
2022/06/07 11:51:21;;;;;;;11.93;7.60;;;16.90;73.90;;;;;;5060349;28;20029;-87
2022/06/07 11:54:03;;;;;;;12.02;6.30;;;16.90;73.60;;;;;;5072201;28;20037;-86
2022/06/07 11:56:51;;;;;;;11.45;5.53;;;17.10;73.70;;;;;;5090105;28;20105;-87
2022/06/07 11:59:16;;;;;;;9.82;6.47;;;17.30;72.90;;;;;;5069629;28;20093;-86
2022/06/07 12:01:54;;;;;;;9.23;6.03;;;17.40;72.10;;;;;;5074044;28;20028;-87
2022/06/07 12:04:30;;;;;;;9.57;6.10;;;17.50;71.40;;;;;;5066102;28;20510;-86
2022/06/07 12:07:05;;;;;;;8.82;6.05;;;17.70;71.70;;;;;;5089230;28;20027;-86
2022/06/07 12:09:32;;;;;;;10.52;6.25;;;17.70;70.60;;;;;;5072768;28;20487;-86
2022/06/07 12:11:58;;;;;;;8.10;6.03;;;17.50;69.20;;;;;;5109785;27;20497;-87
2022/06/07 12:14:37;;;;;;;8.35;5.72;;;17.40;70.00;;;;;;5114918;27;20019;-86
2022/06/07 12:17:20;;;;;;;8.68;6.25;;;17.30;70.10;;;;;;5093649;28;20538;-86
2022/06/07 12:19:46;;;;;;;8.80;5.95;;;17.10;70.30;;;;;;5102905;27;20015;-86
2022/06/07 12:22:18;;;;;;;12.05;6.38;;;17.00;71.30;;;;;;5078144;28;20089;-86
2022/06/07 12:24:49;;;;;;;10.35;6.10;;;17.00;71.60;;;;;;5099589;28;20063;-86
2022/06/07 12:27:31;;;;;;;9.35;5.53;;;16.80;71.90;;;;;;5084969;28;20020;-86
2022/06/07 12:30:19;;;;;;;8.18;5.60;;;16.80;71.90;;;;;;5089724;28;20055;-87
2022/06/07 12:32:45;;;;;;;7.97;5.35;;;16.90;72.20;;;;;;5098610;28;20028;-86
2022/06/07 12:35:21;;;;;;;8.38;5.95;;;17.30;71.70;;;;;;5103073;28;20532;-87
2022/06/07 12:38:00;;;;;;;8.77;5.85;;;17.50;70.50;;;;;;5093966;28;20057;-86
2022/06/07 12:40:35;;;;;;;8.75;5.63;;;17.70;70.40;;;;;;5101740;28;20028;-86
2022/06/07 12:43:03;;;;;;;7.75;4.50;;;17.80;68.80;;;;;;5079104;28;20020;-85
2022/06/07 12:45:37;;;;;;;8.27;4.40;;;17.80;66.90;;;;;;5109730;27;20443;-87
2022/06/07 12:48:15;;;;;;;5.78;4.07;;;18.10;67.70;;;;;;5112234;27;20024;-86
2022/06/07 12:50:43;;;;;;;6.90;4.05;;;18.00;66.20;;;;;;5082444;28;20385;-86
2022/06/07 12:53:27;;;;;;;6.85;4.47;;;17.70;66.90;;;;;;5096961;28;20015;-87
2022/06/07 12:55:57;;;;;;;7.85;5.28;;;17.80;66.80;;;;;;5098422;28;20502;-86
2022/06/07 12:58:25;;;;;;;7.97;5.37;;;17.60;65.70;;;;;;5093275;28;20439;-86
2022/06/07 13:00:51;;;;;;;8.23;4.32;;;17.40;66.70;;;;;;5093414;28;20020;-87
2022/06/07 13:03:35;;;;;;;6.70;4.85;;;17.30;67.60;;;;;;5092957;28;20071;-87
2022/06/07 13:06:08;;;;;;;5.95;4.45;;;17.30;68.90;;;;;;5092061;28;20027;-86
2022/06/07 13:08:42;;;;;;;10.85;5.75;;;17.10;69.30;;;;;;5079185;28;20061;-87
2022/06/07 13:11:15;;;;;;;8.20;5.75;;;17.00;69.00;;;;;;5101472;28;20525;-86
2022/06/07 13:13:44;;;;;;;8.20;5.50;;;17.00;69.10;;;;;;5091738;28;20024;-87
2022/06/07 13:16:19;;;;;;;10.13;5.30;;;17.50;68.90;;;;;;5091625;28;20032;-86
2022/06/07 13:19:14;;;;;;;7.43;5.13;;;17.80;67.30;;;;;;5109804;28;20538;-86
2022/06/07 13:21:51;;;;;;;7.22;5.22;;;18.10;67.40;;;;;;5079396;28;20024;-86
2022/06/07 13:24:26;;;;;;;8.13;5.22;;;18.10;67.00;;;;;;5090945;28;20042;-85